Airfield :
LOGIN :

Register | Disclaimer

   EN    FR    IT 

 










Legend :    VFR   Marginal VFR   IFR   Intensive IFR   Very Intensive IFR
Visi :
Ceiling :
>= 8 km
>= 3000ft
5 to 8 km
1000 to 3000 ft
1500m to 5 km
500 to 1000 ft
800 to 1500m
200 to 500 ft
< 800m
< 200 ft
Symbols :   Thunderstorms  Fog  Heavy snow  Heavy precipitations  Wind > 20 kt
SIGMETs :     Misc.  Thunderstorms  Icing  Turbulence  Mountain Waves  Volcanic Ashes






- Airport Elevation : 821 ft
- IATA code : LYS


LFLL - Lyon St Exupéry / Satolas

CURRENT METAR :
  • 161000Z VRB08G20KT 9999 FEW050 SCT053 BKN210 13/07 Q1010 BECMG 18020G35KT

EXPIRED METARs :
  • 160930Z 15008KT 110V220 CAVOK 14/07 Q1010 BECMG 18020G35KT
  • 160900Z 17011G23KT 120V220 CAVOK 13/07 Q1010 BECMG 18020G35KT
  • 160830Z 17009KT 130V190 CAVOK 13/07 Q1010 BECMG 18020G35KT
  • 160800Z 15007G18KT 110V200 CAVOK 13/07 Q1010 BECMG 18020G35KT
  • 160730Z 13006KT 070V200 CAVOK 13/07 Q1010 BECMG 18020G35KT

TAF AMD TAF LFLL
Valid from the 16 at 09:00 until the 17 at 12:00 UTC


160903Z 1609/1712 18012KT CAVOK
TEMPO 1609/1615 18020G35KT
PROB40
TEMPO 1609/1615 18025G45KT
PROB40
TEMPO 1700/1707 18015G25KT



MET'MAP, your aeronautical weather chart ! - Copyright ORBIFLY December 2007 - Disclaimer

ORBIFLY MET'MAP TEAM :

Programming & Development : Alexandra Zaïnal
Concept & original design : Baudouin d'Aumeries
Assistance for programming : Marc-Olivier Méhu
Technical & hardware support : Manuel Goepfert

Contact : metmap@orbifly.com




SOURCES & CREDITS :

   NOAA